createdAt,value
2018-12-29T00:00:33.367Z,885.48
2018-12-29T00:02:26.310Z,885.47
2018-12-29T00:03:26.679Z,885.51
2018-12-29T00:05:19.878Z,885.50
2018-12-29T00:06:19.687Z,885.46
2018-12-29T00:08:12.982Z,885.49
2018-12-29T00:09:13.336Z,885.49
2018-12-29T00:11:06.887Z,885.52
2018-12-29T00:12:06.350Z,885.50
2018-12-29T00:13:59.877Z,885.50
2018-12-29T00:14:59.654Z,885.53
2018-12-29T00:16:53.966Z,885.51
2018-12-29T00:17:54.131Z,885.50
2018-12-29T00:19:47.140Z,885.52
2018-12-29T00:20:47.156Z,885.56
2018-12-29T00:22:40.671Z,885.55
2018-12-29T00:23:40.854Z,885.61
2018-12-29T00:25:34.011Z,885.61
2018-12-29T00:26:33.797Z,885.59
2018-12-29T00:28:26.536Z,885.61
2018-12-29T00:29:26.119Z,885.62
2018-12-29T00:31:20.019Z,885.59
2018-12-29T00:32:19.824Z,885.57
2018-12-29T00:34:13.382Z,885.57
2018-12-29T00:35:13.159Z,885.57
2018-12-29T00:37:06.472Z,885.54
2018-12-29T00:38:06.523Z,885.57
2018-12-29T00:40:00.240Z,885.60
2018-12-29T00:40:59.854Z,885.62
2018-12-29T00:42:52.856Z,885.59
2018-12-29T00:43:53.165Z,885.61
2018-12-29T00:45:45.705Z,885.60
2018-12-29T00:46:45.528Z,885.62
2018-12-29T00:48:37.509Z,885.60
2018-12-29T00:49:37.830Z,885.59
2018-12-29T00:51:30.357Z,885.61
2018-12-29T00:52:29.786Z,885.66
2018-12-29T00:54:23.140Z,885.62
2018-12-29T00:55:23.505Z,885.60
2018-12-29T00:57:16.537Z,885.59
2018-12-29T00:58:15.981Z,885.63
2018-12-29T01:00:08.550Z,885.64
2018-12-29T01:01:08.321Z,885.64
2018-12-29T01:03:01.654Z,885.66
2018-12-29T01:04:02.028Z,885.62
2018-12-29T01:05:54.550Z,885.64
2018-12-29T01:06:54.314Z,885.62
2018-12-29T01:08:46.305Z,885.67
2018-12-29T01:09:46.291Z,885.65
2018-12-29T01:11:39.440Z,885.66
2018-12-29T01:12:38.615Z,885.64
2018-12-29T01:14:31.178Z,885.64
2018-12-29T01:15:31.294Z,885.63
2018-12-29T01:17:24.306Z,885.64
2018-12-29T01:18:24.309Z,885.59
2018-12-29T01:20:18.192Z,885.64
2018-12-29T01:21:17.620Z,885.60
2018-12-29T01:23:11.501Z,885.56
2018-12-29T01:24:11.352Z,885.58
2018-12-29T01:26:05.298Z,885.61
2018-12-29T01:27:04.621Z,885.63
2018-12-29T01:28:57.836Z,885.58
2018-12-29T01:29:57.966Z,885.57
2018-12-29T01:31:50.036Z,885.56
2018-12-29T01:32:50.367Z,885.57
2018-12-29T01:34:43.523Z,885.54
2018-12-29T01:35:43.352Z,885.54
2018-12-29T01:37:36.661Z,885.55
2018-12-29T01:38:37.054Z,885.53
2018-12-29T01:40:30.243Z,885.53
2018-12-29T01:41:30.038Z,885.53
2018-12-29T01:43:22.335Z,885.53
2018-12-29T01:44:22.680Z,885.50
2018-12-29T01:46:15.123Z,885.51
2018-12-29T01:47:14.965Z,885.49
2018-12-29T01:49:07.847Z,885.48
2018-12-29T01:50:07.623Z,885.47
2018-12-29T01:52:00.969Z,885.47
2018-12-29T01:53:00.580Z,885.53
2018-12-29T01:54:53.035Z,885.48
2018-12-29T01:55:52.826Z,885.50
2018-12-29T01:57:45.968Z,885.50
2018-12-29T01:58:46.135Z,885.46
2018-12-29T02:00:38.998Z,885.54
2018-12-29T02:01:39.018Z,885.54
2018-12-29T02:03:33.133Z,885.58
2018-12-29T02:04:32.005Z,885.56
2018-12-29T02:06:24.885Z,885.58
2018-12-29T02:07:24.657Z,885.55
2018-12-29T02:09:17.564Z,885.61
2018-12-29T02:10:16.993Z,885.61
2018-12-29T02:12:10.473Z,885.64
2018-12-29T02:13:10.347Z,885.64
2018-12-29T02:15:03.256Z,885.61
2018-12-29T02:16:02.666Z,885.68
2018-12-29T02:17:55.395Z,885.66
2018-12-29T02:18:55.181Z,885.65
2018-12-29T02:20:47.929Z,885.66
2018-12-29T02:21:47.869Z,885.69
2018-12-29T02:23:39.876Z,885.66
2018-12-29T02:24:39.836Z,885.68
2018-12-29T02:26:32.414Z,885.71
2018-12-29T02:27:32.525Z,885.70
2018-12-29T02:29:25.049Z,885.71
2018-12-29T02:30:24.887Z,885.72
2018-12-29T02:32:17.834Z,885.73
2018-12-29T02:33:18.180Z,885.71
2018-12-29T02:35:11.358Z,885.75
2018-12-29T02:36:11.528Z,885.73
2018-12-29T02:38:04.873Z,885.75
2018-12-29T02:39:04.494Z,885.77
2018-12-29T02:40:58.407Z,885.73
2018-12-29T02:41:58.164Z,885.76
2018-12-29T02:43:50.206Z,885.70
2018-12-29T02:44:50.513Z,885.70
2018-12-29T02:46:43.693Z,885.72
2018-12-29T02:47:43.848Z,885.69
2018-12-29T02:49:37.397Z,885.70
2018-12-29T02:50:37.194Z,885.70
2018-12-29T02:52:30.523Z,885.67
2018-12-29T02:53:30.205Z,885.67
2018-12-29T02:55:24.336Z,885.66
2018-12-29T02:56:23.537Z,885.59
2018-12-29T02:58:17.185Z,885.65
2018-12-29T02:59:17.188Z,885.60
2018-12-29T03:01:10.606Z,885.61
2018-12-29T03:02:10.173Z,885.59
2018-12-29T03:04:03.883Z,885.61
2018-12-29T03:05:03.551Z,885.62
2018-12-29T03:06:57.433Z,885.59
2018-12-29T03:07:57.201Z,885.57
2018-12-29T03:09:50.807Z,885.60
2018-12-29T03:10:50.210Z,885.57
2018-12-29T03:12:42.754Z,885.57
2018-12-29T03:13:42.873Z,885.57
2018-12-29T03:15:41.370Z,885.52
2018-12-29T03:16:36.230Z,885.53
2018-12-29T03:18:29.421Z,885.52
2018-12-29T03:19:29.244Z,885.53
2018-12-29T03:21:23.115Z,885.55
2018-12-29T03:22:22.541Z,885.52
2018-12-29T03:24:15.888Z,885.54
2018-12-29T03:25:16.233Z,885.51
2018-12-29T03:27:10.410Z,885.52
2018-12-29T03:28:09.221Z,885.52
2018-12-29T03:30:02.633Z,885.49
2018-12-29T03:31:02.085Z,885.50
2018-12-29T03:32:56.242Z,885.51
2018-12-29T03:33:55.816Z,885.50
2018-12-29T03:35:48.945Z,885.49
2018-12-29T03:36:49.155Z,885.48
2018-12-29T03:38:42.072Z,885.49
2018-12-29T03:39:41.459Z,885.46
2018-12-29T03:41:33.951Z,885.43
2018-12-29T03:42:33.729Z,885.44
2018-12-29T03:44:27.105Z,885.43
2018-12-29T03:45:27.097Z,885.41
2018-12-29T03:47:20.670Z,885.41
2018-12-29T03:48:20.399Z,885.39
2018-12-29T03:50:12.746Z,885.37
2018-12-29T03:51:12.430Z,885.38
2018-12-29T03:53:06.287Z,885.35
2018-12-29T03:54:06.137Z,885.32
2018-12-29T03:55:59.471Z,885.32
2018-12-29T03:56:59.071Z,885.27
2018-12-29T03:58:51.751Z,885.27
2018-12-29T03:59:51.953Z,885.22
2018-12-29T04:01:45.139Z,885.28
2018-12-29T04:02:45.314Z,885.19
2018-12-29T04:04:38.136Z,885.21
2018-12-29T04:05:37.798Z,885.23
2018-12-29T04:07:31.307Z,885.16
2018-12-29T04:08:31.476Z,885.16
2018-12-29T04:10:24.464Z,885.10
2018-12-29T04:11:24.793Z,885.10
2018-12-29T04:13:16.527Z,885.06
2018-12-29T04:14:16.686Z,885.02
2018-12-29T04:16:08.623Z,885.07
2018-12-29T04:17:08.623Z,885.07
2018-12-29T04:19:03.117Z,885.00
2018-12-29T04:20:02.911Z,884.93
2018-12-29T04:21:54.879Z,884.95
2018-12-29T04:22:55.196Z,884.93
2018-12-29T04:24:47.772Z,884.88
2018-12-29T04:25:47.199Z,884.91
2018-12-29T04:27:40.944Z,884.86
2018-12-29T04:28:40.582Z,884.86
2018-12-29T04:30:35.054Z,884.80
2018-12-29T04:31:33.876Z,884.79
2018-12-29T04:33:27.626Z,884.75
2018-12-29T04:34:27.240Z,884.75
2018-12-29T04:36:20.699Z,884.73
2018-12-29T04:37:19.932Z,884.67
2018-12-29T04:39:12.925Z,884.64
2018-12-29T04:40:13.268Z,884.62
2018-12-29T04:42:06.041Z,884.58
2018-12-29T04:43:05.555Z,884.56
2018-12-29T04:44:58.586Z,884.51
2018-12-29T04:46:05.057Z,884.50
2018-12-29T04:47:52.431Z,884.45
2018-12-29T04:48:51.878Z,884.46
2018-12-29T04:50:45.469Z,884.41
2018-12-29T04:51:45.260Z,884.40
2018-12-29T04:53:38.126Z,884.38
2018-12-29T04:54:37.902Z,884.34
2018-12-29T04:56:29.921Z,884.36
2018-12-29T04:57:29.881Z,884.31
2018-12-29T04:59:23.418Z,884.29
2018-12-29T05:00:23.572Z,884.28
2018-12-29T05:02:16.663Z,884.24
2018-12-29T05:03:16.490Z,884.21
2018-12-29T05:05:09.045Z,884.20
2018-12-29T05:06:08.833Z,884.19
2018-12-29T05:08:02.127Z,884.15
2018-12-29T05:09:02.154Z,884.14
2018-12-29T05:10:54.434Z,884.12
2018-12-29T05:11:54.550Z,884.17
2018-12-29T05:13:47.853Z,884.06
2018-12-29T05:14:47.841Z,884.02
2018-12-29T05:16:42.000Z,883.99
2018-12-29T05:17:41.136Z,884.00
2018-12-29T05:19:34.193Z,883.98
2018-12-29T05:20:34.509Z,883.95
2018-12-29T05:22:28.053Z,883.94
2018-12-29T05:23:27.879Z,883.93
2018-12-29T05:25:19.730Z,883.92
2018-12-29T05:26:19.333Z,883.89
2018-12-29T05:28:12.775Z,883.84
2018-12-29T05:29:12.231Z,883.82
2018-12-29T05:31:05.583Z,883.85
2018-12-29T05:32:05.888Z,883.85
2018-12-29T05:33:59.472Z,883.82
2018-12-29T05:34:58.912Z,883.82
2018-12-29T05:36:52.459Z,883.82
2018-12-29T05:37:52.207Z,883.78
2018-12-29T05:39:45.801Z,883.80
2018-12-29T05:40:45.558Z,883.82
2018-12-29T05:42:39.273Z,883.81
2018-12-29T05:43:38.894Z,883.84
2018-12-29T05:45:32.782Z,883.81
2018-12-29T05:46:32.270Z,883.75
2018-12-29T05:48:26.216Z,883.78
2018-12-29T05:49:25.932Z,883.78
2018-12-29T05:51:18.955Z,883.76
2018-12-29T05:52:18.962Z,883.74
2018-12-29T05:54:12.664Z,883.71
2018-12-29T05:55:11.608Z,883.72
2018-12-29T05:57:05.216Z,883.69
2018-12-29T05:58:04.608Z,883.68
2018-12-29T05:59:58.463Z,883.65
2018-12-29T06:00:57.938Z,883.67
2018-12-29T06:02:51.178Z,883.63
2018-12-29T06:03:50.814Z,883.62
2018-12-29T06:05:44.359Z,883.63
2018-12-29T06:06:44.112Z,883.61
2018-12-29T06:08:37.473Z,883.65
2018-12-29T06:09:37.496Z,883.63
2018-12-29T06:11:30.995Z,883.60
2018-12-29T06:12:30.844Z,883.59
2018-12-29T06:14:24.278Z,883.59
2018-12-29T06:15:24.489Z,883.60
2018-12-29T06:17:18.068Z,883.60
2018-12-29T06:18:17.507Z,883.55
2018-12-29T06:20:11.716Z,883.59
2018-12-29T06:21:11.335Z,883.57
2018-12-29T06:23:05.826Z,883.54
2018-12-29T06:24:05.083Z,883.53
2018-12-29T06:25:58.451Z,883.55
2018-12-29T06:26:58.081Z,883.51
2018-12-29T06:28:51.551Z,883.50
2018-12-29T06:29:50.739Z,883.51
2018-12-29T06:31:43.254Z,883.49
2018-12-29T06:32:43.063Z,883.52
2018-12-29T06:34:36.170Z,883.48
2018-12-29T06:35:35.413Z,883.52
2018-12-29T06:37:28.954Z,883.48
2018-12-29T06:38:28.746Z,883.48
2018-12-29T06:40:22.418Z,883.52
2018-12-29T06:41:21.720Z,883.49
2018-12-29T06:43:15.623Z,883.49
2018-12-29T06:44:15.053Z,883.46
2018-12-29T06:46:07.373Z,883.51
2018-12-29T06:47:07.357Z,883.47
2018-12-29T06:49:00.949Z,883.52
2018-12-29T06:50:01.091Z,883.54
2018-12-29T06:51:55.020Z,883.48
2018-12-29T06:52:54.043Z,883.50
2018-12-29T06:54:46.577Z,883.52
2018-12-29T06:55:46.731Z,883.49
2018-12-29T06:57:39.718Z,883.47
2018-12-29T06:58:40.079Z,883.47
2018-12-29T07:00:32.237Z,883.46
2018-12-29T07:01:32.363Z,883.48
2018-12-29T07:03:25.395Z,883.46
2018-12-29T07:04:25.719Z,883.46
2018-12-29T07:06:19.271Z,883.47
2018-12-29T07:07:19.068Z,883.51
2018-12-29T07:09:12.063Z,883.45
2018-12-29T07:10:12.418Z,883.50
2018-12-29T07:12:05.968Z,883.49
2018-12-29T07:13:05.780Z,883.50
2018-12-29T07:14:59.027Z,883.49
2018-12-29T07:15:58.681Z,883.54
2018-12-29T07:17:51.144Z,883.54
2018-12-29T07:18:50.624Z,883.53
2018-12-29T07:20:43.988Z,883.52
2018-12-29T07:21:43.960Z,883.52
2018-12-29T07:23:38.440Z,883.48
2018-12-29T07:24:37.651Z,883.52
2018-12-29T07:26:30.643Z,883.50
2018-12-29T07:27:30.632Z,883.55
2018-12-29T07:29:23.508Z,883.52
2018-12-29T07:30:23.013Z,883.52
2018-12-29T07:32:16.883Z,883.48
2018-12-29T07:33:16.356Z,883.48
2018-12-29T07:35:09.939Z,883.49
2018-12-29T07:36:10.006Z,883.50
2018-12-29T07:38:03.366Z,883.46
2018-12-29T07:39:03.016Z,883.46
2018-12-29T07:40:57.499Z,883.48
2018-12-29T07:41:56.353Z,883.47
2018-12-29T07:43:50.061Z,883.46
2018-12-29T07:44:50.030Z,883.47
2018-12-29T07:46:49.529Z,883.44
2018-12-29T07:47:43.377Z,883.49
2018-12-29T07:49:35.358Z,883.45
2018-12-29T07:50:35.729Z,883.46
2018-12-29T07:52:29.850Z,883.45
2018-12-29T07:53:29.057Z,883.46
2018-12-29T07:55:21.967Z,883.45
2018-12-29T07:56:21.039Z,883.44
2018-12-29T07:58:15.538Z,883.43
2018-12-29T07:59:14.732Z,883.42
2018-12-29T08:01:08.490Z,883.39
2018-12-29T08:02:08.074Z,883.40
2018-12-29T08:04:01.628Z,883.40
2018-12-29T08:05:01.401Z,883.38
2018-12-29T08:06:54.638Z,883.36
2018-12-29T08:07:54.368Z,883.40
2018-12-29T08:09:48.560Z,883.40
2018-12-29T08:10:48.147Z,883.39
2018-12-29T08:12:42.302Z,883.39
2018-12-29T08:13:41.852Z,883.40
2018-12-29T08:15:35.806Z,883.41
2018-12-29T08:16:34.874Z,883.43
2018-12-29T08:18:29.332Z,883.45
2018-12-29T08:19:28.523Z,883.43
2018-12-29T08:21:21.377Z,883.42
2018-12-29T08:22:21.424Z,883.46
2018-12-29T08:24:14.153Z,883.42
2018-12-29T08:25:13.731Z,883.43
2018-12-29T08:27:07.658Z,883.40
2018-12-29T08:28:06.684Z,883.43
2018-12-29T08:30:00.858Z,883.43
2018-12-29T08:31:00.427Z,883.42
2018-12-29T08:32:53.739Z,883.44
2018-12-29T08:33:53.744Z,883.41
2018-12-29T08:35:46.279Z,883.43
2018-12-29T08:36:46.073Z,883.40
2018-12-29T08:38:38.623Z,883.37
2018-12-29T08:39:38.035Z,883.38
2018-12-29T08:41:30.737Z,883.35
2018-12-29T08:42:30.743Z,883.35
2018-12-29T08:44:23.271Z,883.33
2018-12-29T08:45:22.701Z,883.35
2018-12-29T08:47:16.400Z,883.33
2018-12-29T08:48:16.391Z,883.31
2018-12-29T08:50:13.310Z,883.28
2018-12-29T08:51:09.736Z,883.28
2018-12-29T08:53:03.128Z,883.28
2018-12-29T08:54:02.714Z,883.30
2018-12-29T08:55:55.248Z,883.26
2018-12-29T08:56:55.098Z,883.24
2018-12-29T08:58:48.447Z,883.24
2018-12-29T08:59:48.767Z,883.24
2018-12-29T09:01:42.287Z,883.22
2018-12-29T09:02:41.736Z,883.22
2018-12-29T09:04:35.072Z,883.23
2018-12-29T09:05:35.435Z,883.22
2018-12-29T09:07:27.484Z,883.23
2018-12-29T09:08:27.304Z,883.25
2018-12-29T09:10:20.636Z,883.30
2018-12-29T09:11:20.592Z,883.28
2018-12-29T09:13:14.742Z,883.30
2018-12-29T09:14:13.961Z,883.27
2018-12-29T09:16:05.965Z,883.31
2018-12-29T09:17:12.069Z,883.29
2018-12-29T09:18:59.506Z,883.33
2018-12-29T09:19:59.253Z,883.34
2018-12-29T09:21:52.631Z,883.37
2018-12-29T09:22:52.601Z,883.39
2018-12-29T09:24:46.487Z,883.36
2018-12-29T09:25:46.280Z,883.38
2018-12-29T09:27:38.631Z,883.38
2018-12-29T09:28:38.644Z,883.40
2018-12-29T09:30:31.821Z,883.39
2018-12-29T09:31:31.945Z,883.44
2018-12-29T09:33:24.884Z,883.44
2018-12-29T09:34:23.942Z,883.40
2018-12-29T09:36:16.437Z,883.43
2018-12-29T09:37:16.280Z,883.46
2018-12-29T09:39:10.550Z,883.40
2018-12-29T09:40:09.946Z,883.43
2018-12-29T09:42:03.458Z,883.43
2018-12-29T09:43:02.922Z,883.41
2018-12-29T09:44:55.616Z,883.41
2018-12-29T09:45:55.244Z,883.39
2018-12-29T09:47:49.133Z,883.43
2018-12-29T09:48:48.618Z,883.43
2018-12-29T09:50:41.514Z,883.44
2018-12-29T09:51:41.307Z,883.45
2018-12-29T09:53:34.291Z,883.46
2018-12-29T09:54:34.325Z,883.46
2018-12-29T09:56:26.981Z,883.48
2018-12-29T09:57:26.773Z,883.50
2018-12-29T09:59:18.999Z,883.49
2018-12-29T10:00:18.641Z,883.50
2018-12-29T10:02:11.478Z,883.49
2018-12-29T10:03:10.968Z,883.52
2018-12-29T10:05:05.112Z,883.54
2018-12-29T10:06:04.667Z,883.54
2018-12-29T10:07:56.614Z,883.54
2018-12-29T10:08:56.992Z,883.54
2018-12-29T10:10:50.155Z,883.59
2018-12-29T10:11:49.993Z,883.58
2018-12-29T10:13:42.873Z,883.60
2018-12-29T10:14:42.629Z,883.60
2018-12-29T10:16:35.217Z,883.61
2018-12-29T10:17:34.606Z,883.59
2018-12-29T10:19:27.133Z,883.58
2018-12-29T10:20:27.293Z,883.61
2018-12-29T10:22:21.181Z,883.63
2018-12-29T10:23:20.821Z,883.65
2018-12-29T10:25:14.708Z,883.67
2018-12-29T10:26:14.487Z,883.71
2018-12-29T10:28:07.525Z,883.70
2018-12-29T10:29:07.487Z,883.74
2018-12-29T10:31:02.017Z,883.75
2018-12-29T10:32:00.869Z,883.76
2018-12-29T10:33:55.436Z,883.77
2018-12-29T10:34:54.521Z,883.78
2018-12-29T10:36:47.312Z,883.80
2018-12-29T10:37:46.893Z,883.80
2018-12-29T10:39:38.873Z,883.80
2018-12-29T10:40:38.867Z,883.80
2018-12-29T10:42:32.368Z,883.82
2018-12-29T10:43:32.209Z,883.86
2018-12-29T10:45:24.890Z,883.87
2018-12-29T10:46:24.860Z,883.86
2018-12-29T10:48:18.045Z,883.87
2018-12-29T10:49:18.195Z,883.89
2018-12-29T10:51:10.564Z,883.92
2018-12-29T10:52:10.523Z,883.88
2018-12-29T10:54:04.031Z,883.89
2018-12-29T10:55:03.879Z,883.88
2018-12-29T10:56:57.205Z,883.89
2018-12-29T10:57:57.188Z,883.89
2018-12-29T10:59:50.734Z,883.91
2018-12-29T11:00:50.572Z,883.89
2018-12-29T11:02:43.593Z,883.93
2018-12-29T11:03:43.572Z,883.88
2018-12-29T11:05:36.123Z,883.93
2018-12-29T11:06:36.242Z,883.91
2018-12-29T11:08:29.609Z,883.91
2018-12-29T11:09:29.563Z,883.92
2018-12-29T11:11:22.156Z,883.94
2018-12-29T11:12:21.546Z,883.91
2018-12-29T11:14:15.459Z,883.94
2018-12-29T11:15:16.508Z,883.96
2018-12-29T11:17:08.629Z,883.98
2018-12-29T11:18:08.620Z,883.98
2018-12-29T11:20:02.163Z,883.99
2018-12-29T11:21:02.509Z,883.96
2018-12-29T11:22:54.924Z,883.95
2018-12-29T11:23:54.915Z,883.95
2018-12-29T11:25:47.463Z,883.94
2018-12-29T11:26:47.608Z,883.95
2018-12-29T11:28:40.963Z,883.94
2018-12-29T11:29:41.003Z,883.95
2018-12-29T11:31:34.476Z,883.91
2018-12-29T11:32:34.329Z,883.94
2018-12-29T11:34:28.250Z,883.95
2018-12-29T11:35:28.977Z,883.99
2018-12-29T11:37:20.909Z,883.90
2018-12-29T11:38:20.967Z,883.93
2018-12-29T11:40:14.096Z,883.96
2018-12-29T11:41:13.954Z,883.94
2018-12-29T11:43:07.899Z,883.87
2018-12-29T11:44:07.326Z,883.91
2018-12-29T11:45:59.800Z,883.90
2018-12-29T11:46:59.655Z,883.90
2018-12-29T11:48:52.973Z,883.90
2018-12-29T11:49:53.348Z,883.88
2018-12-29T11:51:46.902Z,883.89
2018-12-29T11:52:46.621Z,883.84
2018-12-29T11:54:40.022Z,883.85
2018-12-29T11:55:39.975Z,883.86
2018-12-29T11:57:33.185Z,883.89
2018-12-29T11:58:33.361Z,883.87
2018-12-29T12:00:25.704Z,883.86
2018-12-29T12:01:25.338Z,883.85
2018-12-29T12:03:18.248Z,883.83
2018-12-29T12:04:17.999Z,883.81
2018-12-29T12:06:10.384Z,883.84
2018-12-29T12:07:10.320Z,883.81
2018-12-29T12:09:03.925Z,883.82
2018-12-29T12:10:03.677Z,883.84
2018-12-29T12:11:56.686Z,883.83
2018-12-29T12:12:57.006Z,883.84
2018-12-29T12:14:49.606Z,883.86
2018-12-29T12:15:49.030Z,883.84
2018-12-29T12:17:41.855Z,883.81
2018-12-29T12:18:42.246Z,883.80
2018-12-29T12:20:35.798Z,883.82
2018-12-29T12:21:35.541Z,883.80
2018-12-29T12:23:28.451Z,883.79
2018-12-29T12:24:28.084Z,883.82
2018-12-29T12:26:21.998Z,883.77
2018-12-29T12:27:21.455Z,883.78
2018-12-29T12:29:14.774Z,883.71
2018-12-29T12:30:14.763Z,883.74
2018-12-29T12:32:08.347Z,883.73
2018-12-29T12:33:08.470Z,883.71
2018-12-29T12:35:01.458Z,883.72
2018-12-29T12:36:01.835Z,883.71
2018-12-29T12:37:54.203Z,883.71
2018-12-29T12:38:54.010Z,883.69
2018-12-29T12:40:47.713Z,883.64
2018-12-29T12:41:47.641Z,883.69
2018-12-29T12:43:39.893Z,883.68
2018-12-29T12:44:39.990Z,883.66
2018-12-29T12:46:32.208Z,883.69
2018-12-29T12:47:32.513Z,883.67
2018-12-29T12:49:26.084Z,883.63
2018-12-29T12:50:25.875Z,883.64
2018-12-29T12:52:19.248Z,883.64
2018-12-29T12:53:19.187Z,883.61
2018-12-29T12:55:12.827Z,883.64
2018-12-29T12:56:12.221Z,883.69
2018-12-29T12:58:05.924Z,883.64
2018-12-29T12:59:05.910Z,883.66
2018-12-29T13:00:59.135Z,883.61
2018-12-29T13:01:58.895Z,883.62
2018-12-29T13:03:52.581Z,883.58
2018-12-29T13:04:52.573Z,883.55
2018-12-29T13:06:45.756Z,883.58
2018-12-29T13:07:45.917Z,883.55
2018-12-29T13:09:38.914Z,883.59
2018-12-29T13:10:39.230Z,883.58
2018-12-29T13:12:32.809Z,883.62
2018-12-29T13:13:32.596Z,883.59
2018-12-29T13:15:25.601Z,883.61
2018-12-29T13:16:25.582Z,883.66
2018-12-29T13:18:19.515Z,883.61
2018-12-29T13:19:19.265Z,883.63
2018-12-29T13:21:12.279Z,883.66
2018-12-29T13:22:12.590Z,883.63
2018-12-29T13:24:05.824Z,883.63
2018-12-29T13:25:05.947Z,883.60
2018-12-29T13:26:58.927Z,883.62
2018-12-29T13:27:58.917Z,883.65
2018-12-29T13:29:52.504Z,883.65
2018-12-29T13:30:52.654Z,883.69
2018-12-29T13:32:46.018Z,883.64
2018-12-29T13:33:45.611Z,883.62
2018-12-29T13:35:39.500Z,883.62
2018-12-29T13:36:38.953Z,883.58
2018-12-29T13:38:32.657Z,883.58
2018-12-29T13:39:32.677Z,883.60
2018-12-29T13:41:25.845Z,883.61
2018-12-29T13:42:25.626Z,883.60
2018-12-29T13:44:18.973Z,883.58
2018-12-29T13:45:19.322Z,883.61
2018-12-29T13:47:11.760Z,883.58
2018-12-29T13:48:11.535Z,883.56
2018-12-29T13:50:04.857Z,883.61
2018-12-29T13:51:04.871Z,883.61
2018-12-29T13:52:58.757Z,883.58
2018-12-29T13:53:58.178Z,883.60
2018-12-29T13:55:50.919Z,883.60
2018-12-29T13:56:50.541Z,883.61
2018-12-29T13:58:44.454Z,883.60
2018-12-29T13:59:44.233Z,883.62
2018-12-29T14:01:36.209Z,883.60
2018-12-29T14:02:36.198Z,883.59
2018-12-29T14:04:30.059Z,883.57
2018-12-29T14:05:29.880Z,883.59
2018-12-29T14:07:22.200Z,883.57
2018-12-29T14:08:21.882Z,883.58
2018-12-29T14:10:15.783Z,883.55
2018-12-29T14:11:15.565Z,883.56
2018-12-29T14:13:08.862Z,883.65
2018-12-29T14:14:08.898Z,883.64
2018-12-29T14:16:02.456Z,883.61
2018-12-29T14:17:02.194Z,883.62
2018-12-29T14:18:55.593Z,883.63
2018-12-29T14:19:55.227Z,883.60
2018-12-29T14:21:48.169Z,883.65
2018-12-29T14:22:47.543Z,883.64
2018-12-29T14:24:40.804Z,883.66
2018-12-29T14:25:40.413Z,883.66
2018-12-29T14:27:33.964Z,883.65
2018-12-29T14:28:33.752Z,883.63
2018-12-29T14:30:27.113Z,883.65
2018-12-29T14:31:27.450Z,883.67
2018-12-29T14:33:21.049Z,883.65
2018-12-29T14:34:20.779Z,883.65
2018-12-29T14:36:13.830Z,883.61
2018-12-29T14:37:14.161Z,883.62
2018-12-29T14:39:07.323Z,883.63
2018-12-29T14:40:07.124Z,883.63
2018-12-29T14:42:00.815Z,883.60
2018-12-29T14:43:00.800Z,883.59
2018-12-29T14:44:54.404Z,883.57
2018-12-29T14:45:54.164Z,883.60
2018-12-29T14:47:47.160Z,883.60
2018-12-29T14:48:47.174Z,883.61
2018-12-29T14:50:39.714Z,883.63
2018-12-29T14:51:39.498Z,883.60
2018-12-29T14:53:33.176Z,883.59
2018-12-29T14:54:32.809Z,883.57
2018-12-29T14:56:25.711Z,883.57
2018-12-29T14:57:25.515Z,883.58
2018-12-29T14:59:18.472Z,883.56
2018-12-29T15:00:18.467Z,883.57
2018-12-29T15:02:12.394Z,883.55
2018-12-29T15:03:12.181Z,883.52
2018-12-29T15:05:05.483Z,883.53
2018-12-29T15:06:05.491Z,883.53
2018-12-29T15:07:58.700Z,883.57
2018-12-29T15:08:58.852Z,883.59
2018-12-29T15:10:51.823Z,883.53
2018-12-29T15:11:52.185Z,883.59
2018-12-29T15:13:45.367Z,883.54
2018-12-29T15:14:45.550Z,883.55
2018-12-29T15:16:38.865Z,883.52
2018-12-29T15:17:38.841Z,883.54
2018-12-29T15:19:32.092Z,883.56
2018-12-29T15:20:31.864Z,883.52
2018-12-29T15:22:24.227Z,883.54
2018-12-29T15:23:24.186Z,883.55
2018-12-29T15:25:18.042Z,883.54
2018-12-29T15:26:17.890Z,883.53
2018-12-29T15:28:11.235Z,883.54
2018-12-29T15:29:10.837Z,883.53
2018-12-29T15:31:04.796Z,883.57
2018-12-29T15:32:04.192Z,883.54
2018-12-29T15:33:57.917Z,883.52
2018-12-29T15:34:57.854Z,883.50
2018-12-29T15:36:51.430Z,883.49
2018-12-29T15:37:50.864Z,883.46
2018-12-29T15:39:44.568Z,883.47
2018-12-29T15:40:44.229Z,883.44
2018-12-29T15:42:44.699Z,883.42
2018-12-29T15:43:37.908Z,883.43
2018-12-29T15:45:31.291Z,883.40
2018-12-29T15:46:31.256Z,883.41
2018-12-29T15:48:24.830Z,883.42
2018-12-29T15:49:24.235Z,883.44
2018-12-29T15:51:17.086Z,883.42
2018-12-29T15:52:17.107Z,883.41
2018-12-29T15:54:10.691Z,883.41
2018-12-29T15:55:10.776Z,883.41
2018-12-29T15:57:04.133Z,883.42
2018-12-29T15:58:03.806Z,883.44
2018-12-29T15:59:57.334Z,883.43
2018-12-29T16:00:57.114Z,883.43
2018-12-29T16:02:50.448Z,883.43
2018-12-29T16:03:50.823Z,883.42
2018-12-29T16:05:44.359Z,883.39
2018-12-29T16:06:43.806Z,883.40
2018-12-29T16:08:37.137Z,883.40
2018-12-29T16:09:37.484Z,883.46
2018-12-29T16:11:31.043Z,883.42
2018-12-29T16:12:30.785Z,883.43
2018-12-29T16:14:24.157Z,883.41
2018-12-29T16:15:24.127Z,883.40
2018-12-29T16:17:17.724Z,883.38
2018-12-29T16:18:17.179Z,883.39
2018-12-29T16:20:10.844Z,883.36
2018-12-29T16:21:10.865Z,883.39
2018-12-29T16:23:04.481Z,883.35
2018-12-29T16:24:03.843Z,883.39
2018-12-29T16:25:57.829Z,883.39
2018-12-29T16:26:58.088Z,883.35
2018-12-29T16:28:51.623Z,883.34
2018-12-29T16:29:51.451Z,883.32
2018-12-29T16:31:44.799Z,883.34
2018-12-29T16:32:44.786Z,883.33
2018-12-29T16:34:36.943Z,883.33
2018-12-29T16:35:37.102Z,883.35
2018-12-29T16:37:30.421Z,883.36
2018-12-29T16:38:30.442Z,883.36
2018-12-29T16:40:23.993Z,883.37
2018-12-29T16:41:23.408Z,883.38
2018-12-29T16:43:16.747Z,883.36
2018-12-29T16:44:16.767Z,883.34
2018-12-29T16:46:10.354Z,883.36
2018-12-29T16:47:10.075Z,883.38
2018-12-29T16:49:06.912Z,883.38
2018-12-29T16:50:03.455Z,883.40
2018-12-29T16:51:56.513Z,883.32
2018-12-29T16:52:56.668Z,883.34
2018-12-29T16:54:49.634Z,883.35
2018-12-29T16:55:49.618Z,883.37
2018-12-29T16:57:43.166Z,883.37
2018-12-29T16:58:43.320Z,883.37
2018-12-29T17:00:36.668Z,883.38
2018-12-29T17:01:36.295Z,883.35
2018-12-29T17:03:30.198Z,883.40
2018-12-29T17:04:29.636Z,883.41
2018-12-29T17:06:22.986Z,883.39
2018-12-29T17:07:23.369Z,883.44
2018-12-29T17:09:16.576Z,883.41
2018-12-29T17:10:16.660Z,883.44
2018-12-29T17:12:10.047Z,883.43
2018-12-29T17:13:10.009Z,883.38
2018-12-29T17:15:03.188Z,883.40
2018-12-29T17:16:02.980Z,883.41
2018-12-29T17:17:56.701Z,883.37
2018-12-29T17:18:56.723Z,883.40
2018-12-29T17:20:50.282Z,883.40
2018-12-29T17:21:49.689Z,883.39
2018-12-29T17:23:42.544Z,883.37
2018-12-29T17:24:42.540Z,883.39
2018-12-29T17:26:35.760Z,883.37
2018-12-29T17:27:35.566Z,883.37
2018-12-29T17:29:29.231Z,883.38
2018-12-29T17:30:28.908Z,883.39
2018-12-29T17:32:22.839Z,883.38
2018-12-29T17:33:22.235Z,883.36
2018-12-29T17:35:15.953Z,883.38
2018-12-29T17:36:15.903Z,883.33
2018-12-29T17:38:09.144Z,883.36
2018-12-29T17:39:08.919Z,883.35
2018-12-29T17:41:02.585Z,883.34
2018-12-29T17:42:02.575Z,883.41
2018-12-29T17:43:55.797Z,883.36
2018-12-29T17:44:55.558Z,883.34
2018-12-29T17:46:49.399Z,883.37
2018-12-29T17:47:48.899Z,883.36
2018-12-29T17:49:42.486Z,883.36
2018-12-29T17:50:42.284Z,883.37
2018-12-29T17:52:35.961Z,883.34
2018-12-29T17:53:35.950Z,883.32
2018-12-29T17:55:29.141Z,883.31
2018-12-29T17:56:29.270Z,883.30
2018-12-29T17:58:22.639Z,883.30
2018-12-29T17:59:22.615Z,883.31